sensor_id;sensor_type;location;lat;lon;timestamp;temperature;humidity
1411;DHT22;700;51.906;8.404;2022-07-24T00:03:10;19.60;99.90
1411;DHT22;700;51.906;8.404;2022-07-24T00:08:10;19.60;99.90
1411;DHT22;700;51.906;8.404;2022-07-24T00:13:11;19.60;99.90
1411;DHT22;700;51.906;8.404;2022-07-24T00:18:12;19.50;99.90
1411;DHT22;700;51.906;8.404;2022-07-24T00:23:12;19.50;99.90
1411;DHT22;700;51.906;8.404;2022-07-24T00:28:13;19.50;99.90
1411;DHT22;700;51.906;8.404;2022-07-24T00:33:14;19.40;99.90
1411;DHT22;700;51.906;8.404;2022-07-24T00:38:15;19.10;99.90
1411;DHT22;700;51.906;8.404;2022-07-24T00:43:15;19.00;99.90
1411;DHT22;700;51.906;8.404;2022-07-24T00:48:19;19.10;99.90
1411;DHT22;700;51.906;8.404;2022-07-24T00:53:20;19.20;99.90
1411;DHT22;700;51.906;8.404;2022-07-24T00:58:20;19.20;99.90
1411;DHT22;700;51.906;8.404;2022-07-24T01:03:21;19.20;99.90
1411;DHT22;700;51.906;8.404;2022-07-24T01:08:22;19.10;99.90
1411;DHT22;700;51.906;8.404;2022-07-24T01:13:23;19.20;99.90
1411;DHT22;700;51.906;8.404;2022-07-24T01:18:24;19.10;99.90
1411;DHT22;700;51.906;8.404;2022-07-24T01:23:24;18.90;99.90
1411;DHT22;700;51.906;8.404;2022-07-24T01:28:25;18.90;99.90
1411;DHT22;700;51.906;8.404;2022-07-24T01:33:26;18.90;99.90
1411;DHT22;700;51.906;8.404;2022-07-24T01:38:29;19.00;99.90
1411;DHT22;700;51.906;8.404;2022-07-24T01:43:32;18.90;99.90
1411;DHT22;700;51.906;8.404;2022-07-24T01:48:35;18.80;99.90
1411;DHT22;700;51.906;8.404;2022-07-24T01:53:36;18.60;99.90
1411;DHT22;700;51.906;8.404;2022-07-24T01:58:36;18.70;99.90
1411;DHT22;700;51.906;8.404;2022-07-24T02:03:39;18.70;99.90
1411;DHT22;700;51.906;8.404;2022-07-24T02:08:42;18.70;99.90
1411;DHT22;700;51.906;8.404;2022-07-24T02:13:43;18.70;99.90
1411;DHT22;700;51.906;8.404;2022-07-24T02:18:44;18.80;99.90
1411;DHT22;700;51.906;8.404;2022-07-24T02:23:46;18.70;99.90
1411;DHT22;700;51.906;8.404;2022-07-24T02:28:47;18.70;99.90
1411;DHT22;700;51.906;8.404;2022-07-24T02:33:48;18.50;99.90
1411;DHT22;700;51.906;8.404;2022-07-24T02:38:49;18.40;99.90
1411;DHT22;700;51.906;8.404;2022-07-24T02:43:52;18.40;99.90
1411;DHT22;700;51.906;8.404;2022-07-24T02:48:52;18.30;99.90
1411;DHT22;700;51.906;8.404;2022-07-24T02:53:55;18.40;99.90
1411;DHT22;700;51.906;8.404;2022-07-24T02:58:58;18.40;99.90
1411;DHT22;700;51.906;8.404;2022-07-24T03:03:59;18.30;99.90
1411;DHT22;700;51.906;8.404;2022-07-24T03:09:03;18.30;99.90
1411;DHT22;700;51.906;8.404;2022-07-24T03:14:03;18.30;99.90
1411;DHT22;700;51.906;8.404;2022-07-24T03:19:04;18.20;99.90
1411;DHT22;700;51.906;8.404;2022-07-24T03:24:05;18.30;99.90
1411;DHT22;700;51.906;8.404;2022-07-24T03:29:06;18.10;99.90
1411;DHT22;700;51.906;8.404;2022-07-24T03:34:11;18.00;99.90
1411;DHT22;700;51.906;8.404;2022-07-24T03:39:15;17.70;99.90
1411;DHT22;700;51.906;8.404;2022-07-24T03:44:15;17.80;99.90
1411;DHT22;700;51.906;8.404;2022-07-24T03:49:16;18.00;99.90
1411;DHT22;700;51.906;8.404;2022-07-24T03:54:19;18.00;99.90
1411;DHT22;700;51.906;8.404;2022-07-24T03:59:19;17.90;99.90
1411;DHT22;700;51.906;8.404;2022-07-24T04:04:20;18.00;99.90
1411;DHT22;700;51.906;8.404;2022-07-24T04:09:21;18.10;99.90
1411;DHT22;700;51.906;8.404;2022-07-24T04:14:21;18.20;99.90
1411;DHT22;700;51.906;8.404;2022-07-24T04:19:22;18.10;99.90
1411;DHT22;700;51.906;8.404;2022-07-24T04:24:27;18.20;99.90
1411;DHT22;700;51.906;8.404;2022-07-24T04:29:28;18.20;99.90
1411;DHT22;700;51.906;8.404;2022-07-24T04:34:28;18.30;99.90
1411;DHT22;700;51.906;8.404;2022-07-24T04:39:31;18.30;99.90
1411;DHT22;700;51.906;8.404;2022-07-24T04:44:32;18.50;99.90
1411;DHT22;700;51.906;8.404;2022-07-24T04:49:37;18.50;99.90
1411;DHT22;700;51.906;8.404;2022-07-24T04:54:38;18.60;99.90
1411;DHT22;700;51.906;8.404;2022-07-24T04:59:39;18.70;99.90
1411;DHT22;700;51.906;8.404;2022-07-24T05:04:42;18.70;99.90
1411;DHT22;700;51.906;8.404;2022-07-24T05:09:44;18.70;99.90
1411;DHT22;700;51.906;8.404;2022-07-24T05:14:45;18.90;99.90
1411;DHT22;700;51.906;8.404;2022-07-24T05:19:46;19.00;99.90
1411;DHT22;700;51.906;8.404;2022-07-24T05:24:49;19.30;99.90
1411;DHT22;700;51.906;8.404;2022-07-24T05:29:50;19.30;99.90
1411;DHT22;700;51.906;8.404;2022-07-24T05:34:50;19.60;99.90
1411;DHT22;700;51.906;8.404;2022-07-24T05:39:53;19.50;99.90
1411;DHT22;700;51.906;8.404;2022-07-24T05:44:54;19.70;99.90
1411;DHT22;700;51.906;8.404;2022-07-24T05:49:54;19.70;99.90
1411;DHT22;700;51.906;8.404;2022-07-24T05:54:55;20.00;99.90
1411;DHT22;700;51.906;8.404;2022-07-24T06:00:00;20.10;99.90
1411;DHT22;700;51.906;8.404;2022-07-24T06:05:04;20.20;99.90
1411;DHT22;700;51.906;8.404;2022-07-24T06:10:05;20.50;99.90
1411;DHT22;700;51.906;8.404;2022-07-24T06:15:06;20.70;99.90
1411;DHT22;700;51.906;8.404;2022-07-24T06:20:08;20.60;99.90
1411;DHT22;700;51.906;8.404;2022-07-24T06:25:13;20.60;99.90
1411;DHT22;700;51.906;8.404;2022-07-24T06:30:26;20.60;99.90
1411;DHT22;700;51.906;8.404;2022-07-24T06:35:28;21.00;99.90
1411;DHT22;700;51.906;8.404;2022-07-24T06:40:31;21.30;99.90
1411;DHT22;700;51.906;8.404;2022-07-24T06:45:32;21.60;99.90
1411;DHT22;700;51.906;8.404;2022-07-24T06:50:35;21.70;99.90
1411;DHT22;700;51.906;8.404;2022-07-24T06:55:38;21.80;99.90
1411;DHT22;700;51.906;8.404;2022-07-24T07:00:39;22.00;99.90
1411;DHT22;700;51.906;8.404;2022-07-24T07:05:40;22.00;99.90
1411;DHT22;700;51.906;8.404;2022-07-24T07:10:40;22.30;99.90
1411;DHT22;700;51.906;8.404;2022-07-24T07:15:44;22.60;99.90
1411;DHT22;700;51.906;8.404;2022-07-24T07:20:44;23.00;99.90
1411;DHT22;700;51.906;8.404;2022-07-24T07:25:45;23.20;99.90
1411;DHT22;700;51.906;8.404;2022-07-24T07:30:46;23.50;99.90
1411;DHT22;700;51.906;8.404;2022-07-24T07:35:47;23.60;99.90
1411;DHT22;700;51.906;8.404;2022-07-24T07:40:48;23.80;99.90
1411;DHT22;700;51.906;8.404;2022-07-24T07:45:51;23.90;99.90
1411;DHT22;700;51.906;8.404;2022-07-24T07:50:52;24.30;99.90
1411;DHT22;700;51.906;8.404;2022-07-24T07:55:55;24.60;99.90
1411;DHT22;700;51.906;8.404;2022-07-24T08:00:55;24.70;99.90
1411;DHT22;700;51.906;8.404;2022-07-24T08:05:56;24.80;99.90
1411;DHT22;700;51.906;8.404;2022-07-24T08:10:59;25.10;99.90
1411;DHT22;700;51.906;8.404;2022-07-24T08:16:00;25.40;99.90
1411;DHT22;700;51.906;8.404;2022-07-24T08:21:00;25.60;99.90
1411;DHT22;700;51.906;8.404;2022-07-24T08:26:01;25.70;99.90
1411;DHT22;700;51.906;8.404;2022-07-24T08:31:02;26.00;99.90
1411;DHT22;700;51.906;8.404;2022-07-24T08:36:03;26.20;99.90
1411;DHT22;700;51.906;8.404;2022-07-24T08:41:04;26.40;99.90
1411;DHT22;700;51.906;8.404;2022-07-24T08:46:09;26.60;99.90
1411;DHT22;700;51.906;8.404;2022-07-24T08:51:13;26.80;99.90
1411;DHT22;700;51.906;8.404;2022-07-24T08:56:17;26.60;99.90
1411;DHT22;700;51.906;8.404;2022-07-24T09:01:22;26.90;99.90
1411;DHT22;700;51.906;8.404;2022-07-24T09:06:23;27.40;99.90
1411;DHT22;700;51.906;8.404;2022-07-24T09:11:26;27.60;99.90
1411;DHT22;700;51.906;8.404;2022-07-24T09:16:33;27.90;99.90
1411;DHT22;700;51.906;8.404;2022-07-24T09:21:38;27.80;99.90
1411;DHT22;700;51.906;8.404;2022-07-24T09:31:54;28.90;99.90
1411;DHT22;700;51.906;8.404;2022-07-24T09:37:06;30.90;99.90
1411;DHT22;700;51.906;8.404;2022-07-24T09:42:08;33.60;94.90
1411;DHT22;700;51.906;8.404;2022-07-24T09:47:11;35.10;86.00
1411;DHT22;700;51.906;8.404;2022-07-24T09:52:15;37.10;74.40
1411;DHT22;700;51.906;8.404;2022-07-24T09:57:22;38.50;63.40
1411;DHT22;700;51.906;8.404;2022-07-24T10:02:28;39.50;57.00
1411;DHT22;700;51.906;8.404;2022-07-24T10:07:30;39.20;55.20
1411;DHT22;700;51.906;8.404;2022-07-24T10:12:32;38.50;54.10
1411;DHT22;700;51.906;8.404;2022-07-24T10:23:03;41.70;49.60
1411;DHT22;700;51.906;8.404;2022-07-24T10:28:08;41.80;47.20
1411;DHT22;700;51.906;8.404;2022-07-24T10:33:12;42.60;45.30
1411;DHT22;700;51.906;8.404;2022-07-24T10:38:20;43.90;42.60
1411;DHT22;700;51.906;8.404;2022-07-24T10:43:22;42.00;43.20
1411;DHT22;700;51.906;8.404;2022-07-24T11:03:57;39.90;46.50
1411;DHT22;700;51.906;8.404;2022-07-24T11:09:01;43.20;42.00
1411;DHT22;700;51.906;8.404;2022-07-24T11:14:01;47.50;35.50
1411;DHT22;700;51.906;8.404;2022-07-24T11:34:17;50.00;31.30
1411;DHT22;700;51.906;8.404;2022-07-24T11:39:19;49.90;28.80
1411;DHT22;700;51.906;8.404;2022-07-24T11:44:28;47.90;29.90
1411;DHT22;700;51.906;8.404;2022-07-24T11:49:46;48.70;29.70
1411;DHT22;700;51.906;8.404;2022-07-24T11:54:51;49.30;28.70
1411;DHT22;700;51.906;8.404;2022-07-24T11:59:52;48.50;29.90
1411;DHT22;700;51.906;8.404;2022-07-24T12:04:54;49.00;28.20
1411;DHT22;700;51.906;8.404;2022-07-24T12:09:57;46.20;29.80
1411;DHT22;700;51.906;8.404;2022-07-24T12:20:12;52.50;27.90
1411;DHT22;700;51.906;8.404;2022-07-24T12:25:15;52.20;27.10
1411;DHT22;700;51.906;8.404;2022-07-24T12:30:18;50.70;27.90
1411;DHT22;700;51.906;8.404;2022-07-24T12:35:19;49.20;29.10
1411;DHT22;700;51.906;8.404;2022-07-24T12:40:31;49.10;28.60
1411;DHT22;700;51.906;8.404;2022-07-24T12:45:33;50.00;28.20
1411;DHT22;700;51.906;8.404;2022-07-24T12:50:37;48.90;28.70
1411;DHT22;700;51.906;8.404;2022-07-24T12:55:38;47.50;30.10
1411;DHT22;700;51.906;8.404;2022-07-24T13:00:38;47.50;29.40
1411;DHT22;700;51.906;8.404;2022-07-24T13:05:42;45.30;31.10
1411;DHT22;700;51.906;8.404;2022-07-24T13:10:47;44.30;31.00
1411;DHT22;700;51.906;8.404;2022-07-24T13:15:47;45.10;30.60
1411;DHT22;700;51.906;8.404;2022-07-24T13:20:48;44.20;31.30
1411;DHT22;700;51.906;8.404;2022-07-24T13:25:49;44.90;32.00
1411;DHT22;700;51.906;8.404;2022-07-24T13:30:52;44.20;32.90
1411;DHT22;700;51.906;8.404;2022-07-24T13:35:53;46.80;31.30
1411;DHT22;700;51.906;8.404;2022-07-24T13:40:58;48.10;28.80
1411;DHT22;700;51.906;8.404;2022-07-24T13:45:59;47.00;29.10
1411;DHT22;700;51.906;8.404;2022-07-24T13:51:02;43.90;33.10
1411;DHT22;700;51.906;8.404;2022-07-24T13:56:09;44.00;33.10
1411;DHT22;700;51.906;8.404;2022-07-24T14:01:12;43.30;33.60
1411;DHT22;700;51.906;8.404;2022-07-24T14:06:17;40.60;35.80
1411;DHT22;700;51.906;8.404;2022-07-24T14:11:18;38.90;38.10
1411;DHT22;700;51.906;8.404;2022-07-24T14:16:19;38.30;39.90
1411;DHT22;700;51.906;8.404;2022-07-24T14:21:20;38.60;39.10
1411;DHT22;700;51.906;8.404;2022-07-24T14:26:21;37.70;39.00
1411;DHT22;700;51.906;8.404;2022-07-24T14:31:22;37.40;39.80
1411;DHT22;700;51.906;8.404;2022-07-24T14:36:24;36.90;40.30
1411;DHT22;700;51.906;8.404;2022-07-24T14:41:25;37.00;41.60
1411;DHT22;700;51.906;8.404;2022-07-24T14:46:26;36.30;41.80
1411;DHT22;700;51.906;8.404;2022-07-24T14:51:29;36.20;42.70
1411;DHT22;700;51.906;8.404;2022-07-24T14:56:29;36.10;43.40
1411;DHT22;700;51.906;8.404;2022-07-24T15:01:33;36.50;42.80
1411;DHT22;700;51.906;8.404;2022-07-24T15:06:34;35.90;43.50
1411;DHT22;700;51.906;8.404;2022-07-24T15:11:35;34.70;44.10
1411;DHT22;700;51.906;8.404;2022-07-24T15:16:40;34.20;45.20
1411;DHT22;700;51.906;8.404;2022-07-24T15:21:41;34.00;46.20
1411;DHT22;700;51.906;8.404;2022-07-24T15:26:47;33.40;46.40
1411;DHT22;700;51.906;8.404;2022-07-24T15:31:49;33.30;46.90
1411;DHT22;700;51.906;8.404;2022-07-24T15:36:50;32.90;47.80
1411;DHT22;700;51.906;8.404;2022-07-24T15:41:53;32.70;48.80
1411;DHT22;700;51.906;8.404;2022-07-24T15:46:54;33.00;48.90
1411;DHT22;700;51.906;8.404;2022-07-24T15:51:54;33.20;47.40
1411;DHT22;700;51.906;8.404;2022-07-24T15:56:55;33.00;47.10
1411;DHT22;700;51.906;8.404;2022-07-24T16:01:56;33.60;47.20
1411;DHT22;700;51.906;8.404;2022-07-24T16:06:56;33.70;46.60
1411;DHT22;700;51.906;8.404;2022-07-24T16:11:57;33.60;47.70
1411;DHT22;700;51.906;8.404;2022-07-24T16:16:59;33.70;47.20
1411;DHT22;700;51.906;8.404;2022-07-24T16:22:02;33.70;47.00
1411;DHT22;700;51.906;8.404;2022-07-24T16:27:06;33.30;48.50
1411;DHT22;700;51.906;8.404;2022-07-24T16:32:07;33.30;48.90
1411;DHT22;700;51.906;8.404;2022-07-24T16:37:07;33.30;48.90
1411;DHT22;700;51.906;8.404;2022-07-24T16:42:11;33.30;49.00
1411;DHT22;700;51.906;8.404;2022-07-24T16:47:14;33.50;49.20
1411;DHT22;700;51.906;8.404;2022-07-24T16:52:15;33.60;48.60
1411;DHT22;700;51.906;8.404;2022-07-24T16:57:18;33.60;47.80
1411;DHT22;700;51.906;8.404;2022-07-24T17:02:19;33.60;48.50
1411;DHT22;700;51.906;8.404;2022-07-24T17:07:20;33.40;49.10
1411;DHT22;700;51.906;8.404;2022-07-24T17:12:22;33.40;49.50
1411;DHT22;700;51.906;8.404;2022-07-24T17:17:28;33.30;48.70
1411;DHT22;700;51.906;8.404;2022-07-24T17:22:48;33.50;49.30
1411;DHT22;700;51.906;8.404;2022-07-24T17:27:49;33.50;48.50
1411;DHT22;700;51.906;8.404;2022-07-24T17:32:50;33.30;49.40
1411;DHT22;700;51.906;8.404;2022-07-24T17:37:55;33.20;49.20
1411;DHT22;700;51.906;8.404;2022-07-24T17:42:56;33.20;50.20
1411;DHT22;700;51.906;8.404;2022-07-24T17:47:57;33.00;50.70
1411;DHT22;700;51.906;8.404;2022-07-24T17:52:58;32.90;50.40
1411;DHT22;700;51.906;8.404;2022-07-24T17:57:58;32.70;49.90
1411;DHT22;700;51.906;8.404;2022-07-24T18:03:01;32.50;52.40
1411;DHT22;700;51.906;8.404;2022-07-24T18:08:02;32.50;51.60
1411;DHT22;700;51.906;8.404;2022-07-24T18:13:03;32.40;52.70
1411;DHT22;700;51.906;8.404;2022-07-24T18:18:04;32.20;52.00
1411;DHT22;700;51.906;8.404;2022-07-24T18:23:07;31.90;53.40
1411;DHT22;700;51.906;8.404;2022-07-24T18:28:09;31.70;54.30
1411;DHT22;700;51.906;8.404;2022-07-24T18:33:10;31.50;55.20
1411;DHT22;700;51.906;8.404;2022-07-24T18:38:12;31.10;56.30
1411;DHT22;700;51.906;8.404;2022-07-24T18:43:13;31.10;57.10
1411;DHT22;700;51.906;8.404;2022-07-24T18:48:13;30.90;57.50
1411;DHT22;700;51.906;8.404;2022-07-24T18:53:16;30.70;58.60
1411;DHT22;700;51.906;8.404;2022-07-24T18:58:19;30.60;59.20
1411;DHT22;700;51.906;8.404;2022-07-24T19:03:20;30.40;59.90
1411;DHT22;700;51.906;8.404;2022-07-24T19:08:23;30.40;62.80
1411;DHT22;700;51.906;8.404;2022-07-24T19:13:24;30.10;63.40
1411;DHT22;700;51.906;8.404;2022-07-24T19:18:27;29.70;66.70
1411;DHT22;700;51.906;8.404;2022-07-24T19:23:27;29.40;69.80
1411;DHT22;700;51.906;8.404;2022-07-24T19:28:28;29.30;72.50
1411;DHT22;700;51.906;8.404;2022-07-24T19:33:31;29.20;74.30
1411;DHT22;700;51.906;8.404;2022-07-24T19:38:34;29.10;76.00
1411;DHT22;700;51.906;8.404;2022-07-24T19:43:34;29.00;79.00
1411;DHT22;700;51.906;8.404;2022-07-24T19:48:35;28.80;82.60
1411;DHT22;700;51.906;8.404;2022-07-24T19:53:36;28.70;85.80
1411;DHT22;700;51.906;8.404;2022-07-24T19:58:37;28.60;89.10
1411;DHT22;700;51.906;8.404;2022-07-24T20:03:37;28.40;91.40
1411;DHT22;700;51.906;8.404;2022-07-24T20:08:38;28.20;93.50
1411;DHT22;700;51.906;8.404;2022-07-24T20:13:39;28.10;95.40
1411;DHT22;700;51.906;8.404;2022-07-24T20:18:40;28.10;96.40
1411;DHT22;700;51.906;8.404;2022-07-24T20:23:41;27.90;98.00
1411;DHT22;700;51.906;8.404;2022-07-24T20:28:41;27.70;99.80
1411;DHT22;700;51.906;8.404;2022-07-24T20:33:42;27.60;99.90
1411;DHT22;700;51.906;8.404;2022-07-24T20:38:43;27.50;99.90
1411;DHT22;700;51.906;8.404;2022-07-24T20:43:43;27.40;99.90
1411;DHT22;700;51.906;8.404;2022-07-24T20:48:44;27.30;99.90
1411;DHT22;700;51.906;8.404;2022-07-24T20:53:45;27.10;99.90
1411;DHT22;700;51.906;8.404;2022-07-24T20:58:48;27.00;99.90
1411;DHT22;700;51.906;8.404;2022-07-24T21:03:49;27.00;99.90
1411;DHT22;700;51.906;8.404;2022-07-24T21:08:49;27.00;99.90
1411;DHT22;700;51.906;8.404;2022-07-24T21:13:50;26.90;99.90
1411;DHT22;700;51.906;8.404;2022-07-24T21:18:55;26.80;99.90
1411;DHT22;700;51.906;8.404;2022-07-24T21:23:58;26.50;99.90
1411;DHT22;700;51.906;8.404;2022-07-24T21:28:59;26.60;99.90
1411;DHT22;700;51.906;8.404;2022-07-24T21:34:00;26.50;99.90
1411;DHT22;700;51.906;8.404;2022-07-24T21:39:03;26.40;99.90
1411;DHT22;700;51.906;8.404;2022-07-24T21:44:06;26.30;99.90
1411;DHT22;700;51.906;8.404;2022-07-24T21:49:09;26.10;99.90
1411;DHT22;700;51.906;8.404;2022-07-24T21:54:14;26.20;99.90
1411;DHT22;700;51.906;8.404;2022-07-24T21:59:15;26.20;99.90
1411;DHT22;700;51.906;8.404;2022-07-24T22:04:16;26.10;99.90
1411;DHT22;700;51.906;8.404;2022-07-24T22:09:16;25.90;99.90
1411;DHT22;700;51.906;8.404;2022-07-24T22:14:19;25.80;99.90
1411;DHT22;700;51.906;8.404;2022-07-24T22:19:20;25.70;99.90
1411;DHT22;700;51.906;8.404;2022-07-24T22:24:20;25.60;99.90
1411;DHT22;700;51.906;8.404;2022-07-24T22:29:21;25.40;99.90
1411;DHT22;700;51.906;8.404;2022-07-24T22:34:22;25.40;99.90
1411;DHT22;700;51.906;8.404;2022-07-24T22:39:23;25.30;99.90
1411;DHT22;700;51.906;8.404;2022-07-24T22:44:25;25.30;99.90
1411;DHT22;700;51.906;8.404;2022-07-24T22:49:26;25.20;99.90
1411;DHT22;700;51.906;8.404;2022-07-24T22:54:27;25.20;99.90
1411;DHT22;700;51.906;8.404;2022-07-24T22:59:28;25.20;99.90
1411;DHT22;700;51.906;8.404;2022-07-24T23:04:31;25.10;99.90
1411;DHT22;700;51.906;8.404;2022-07-24T23:09:32;25.10;99.90
1411;DHT22;700;51.906;8.404;2022-07-24T23:14:32;25.10;99.90
1411;DHT22;700;51.906;8.404;2022-07-24T23:19:33;25.10;99.90
1411;DHT22;700;51.906;8.404;2022-07-24T23:24:35;25.10;99.90
1411;DHT22;700;51.906;8.404;2022-07-24T23:29:38;25.00;99.90
1411;DHT22;700;51.906;8.404;2022-07-24T23:34:39;25.00;99.90
1411;DHT22;700;51.906;8.404;2022-07-24T23:39:42;24.90;99.90
1411;DHT22;700;51.906;8.404;2022-07-24T23:44:46;24.90;99.90
1411;DHT22;700;51.906;8.404;2022-07-24T23:49:46;24.80;99.90
1411;DHT22;700;51.906;8.404;2022-07-24T23:54:49;24.50;99.90
1411;DHT22;700;51.906;8.404;2022-07-24T23:59:52;24.40;99.90
